Terminal Aerodrome Forecast
Issued by NWS Mt. Holly, NJ

Home | Current Version | Previous Version | Text Only | Print | Product List | Glossary On
Versions: 1 2 3 4 5 6 7 8 9 10 11 12 13 14 15 16 17 18 19 20 21
707
FTUS41 KPHI 112333
TAFACY
TAF
KACY 112333Z 1200/1224 29015G22KT P6SM SCT050
     FM120300 28011KT P6SM FEW150
     FM121500 25007KT P6SM BKN120
     FM121800 22005KT P6SM OVC050=

USA.gov is the U.S. government's official web portal to all federal, state and local government web resources and services.